Time;durP1;ratioP1;P1;durP2;ratioP2;P2;SDS_P1;SDS_P2;PMS_P1;PMS_P2;Temp;Humidity;BMP_temperature;BMP_pressure;BME280_temperature;BME280_humidity;BME280_pressure;Samples;Min_cycle;Max_cycle;Signal;HPM_P1;HPM_P2
2022/04/07 00:02:13;;;;;;;11.97;7.50;;;9.60;99.90;;;;;;5051609;28;20193;-51
2022/04/07 00:04:41;;;;;;;11.00;7.33;;;9.70;99.90;;;;;;5052116;28;20215;-51
2022/04/07 00:07:09;;;;;;;13.37;7.47;;;9.60;99.90;;;;;;5052010;28;20225;-52
2022/04/07 00:09:39;;;;;;;8.73;6.73;;;9.50;99.90;;;;;;5052108;28;20620;-52
2022/04/07 00:12:08;;;;;;;9.30;7.03;;;9.50;99.90;;;;;;5051718;28;20258;-52
2022/04/07 00:14:36;;;;;;;9.50;7.17;;;9.50;99.90;;;;;;5051831;28;20264;-52
2022/04/07 00:17:05;;;;;;;9.90;7.20;;;9.50;99.90;;;;;;5051830;28;20255;-52
2022/04/07 00:19:33;;;;;;;10.27;7.20;;;9.50;99.90;;;;;;5051893;28;20304;-51
2022/04/07 00:22:01;;;;;;;9.63;7.13;;;9.50;99.90;;;;;;5051351;28;20221;-52
2022/04/07 00:24:29;;;;;;;10.60;6.87;;;9.50;99.90;;;;;;5051851;28;20728;-52
2022/04/07 00:26:58;;;;;;;9.07;6.87;;;9.40;99.90;;;;;;5051679;28;20702;-52
2022/04/07 00:29:26;;;;;;;9.83;6.93;;;9.50;99.90;;;;;;5050051;28;20256;-52
2022/04/07 00:31:56;;;;;;;8.10;6.70;;;9.50;99.90;;;;;;5051156;28;20244;-52
2022/04/07 00:34:25;;;;;;;9.67;6.97;;;9.60;99.90;;;;;;5051691;28;20270;-51
2022/04/07 00:36:53;;;;;;;7.63;6.17;;;9.60;99.90;;;;;;5051551;28;20628;-52
2022/04/07 00:39:21;;;;;;;9.03;6.27;;;9.60;99.90;;;;;;5051727;28;20205;-52
2022/04/07 00:41:50;;;;;;;9.37;6.63;;;9.60;99.90;;;;;;5051149;28;20280;-52
2022/04/07 00:44:22;;;;;;;9.30;6.50;;;9.60;99.90;;;;;;5050158;28;20213;-52
2022/04/07 00:46:50;;;;;;;10.13;6.47;;;9.70;99.90;;;;;;5051089;28;20243;-52
2022/04/07 00:49:18;;;;;;;8.13;6.83;;;9.70;99.90;;;;;;5051102;28;20263;-52
2022/04/07 00:51:46;;;;;;;11.87;6.40;;;9.70;99.90;;;;;;5050213;28;20785;-52
2022/04/07 00:54:16;;;;;;;10.40;6.20;;;9.70;99.90;;;;;;5051568;28;20588;-52
2022/04/07 00:56:45;;;;;;;10.63;6.60;;;9.70;99.90;;;;;;5051430;28;20198;-51
2022/04/07 00:59:17;;;;;;;8.30;5.87;;;9.70;99.90;;;;;;5050989;28;20201;-52
2022/04/07 01:01:47;;;;;;;9.70;6.30;;;9.70;99.90;;;;;;5050774;28;20622;-51
2022/04/07 01:04:16;;;;;;;9.80;6.77;;;9.70;99.90;;;;;;5051511;28;20196;-52
2022/04/07 01:06:47;;;;;;;9.27;6.20;;;9.70;99.90;;;;;;5051330;28;20281;-52
2022/04/07 01:09:16;;;;;;;8.43;6.00;;;9.70;99.90;;;;;;5051242;28;20200;-51
2022/04/07 01:11:46;;;;;;;6.93;5.20;;;9.70;99.90;;;;;;5050688;28;20275;-52
2022/04/07 01:14:15;;;;;;;7.13;5.90;;;9.70;99.90;;;;;;5051055;28;20186;-52
2022/04/07 01:16:43;;;;;;;10.10;6.10;;;9.80;99.90;;;;;;5051016;28;20699;-52
2022/04/07 01:19:12;;;;;;;6.73;5.37;;;9.70;99.90;;;;;;5051190;28;20249;-52
2022/04/07 01:21:42;;;;;;;10.30;5.90;;;9.80;99.90;;;;;;5051095;28;20642;-51
2022/04/07 01:24:12;;;;;;;7.50;5.93;;;9.70;99.90;;;;;;5051222;28;20205;-52
2022/04/07 01:26:43;;;;;;;7.53;5.30;;;9.70;99.90;;;;;;5038802;28;20238;-52
2022/04/07 01:29:13;;;;;;;8.93;5.40;;;9.70;99.90;;;;;;5031178;28;20194;-52
2022/04/07 01:31:42;;;;;;;7.50;5.63;;;9.70;99.90;;;;;;5028903;28;20719;-52
2022/04/07 01:34:14;;;;;;;7.37;5.63;;;9.70;99.90;;;;;;5031496;28;20289;-52
2022/04/07 01:36:46;;;;;;;9.20;5.47;;;9.70;99.90;;;;;;5030940;28;20214;-52
2022/04/07 01:39:20;;;;;;;11.30;5.83;;;9.70;99.90;;;;;;5031150;28;20270;-52
2022/04/07 01:41:50;;;;;;;7.27;5.70;;;9.70;99.90;;;;;;5041267;28;20581;-51
2022/04/07 01:44:19;;;;;;;7.97;5.80;;;9.70;99.90;;;;;;5050737;28;20193;-51
2022/04/07 01:46:48;;;;;;;6.97;5.60;;;9.80;99.90;;;;;;5050010;28;20263;-52
2022/04/07 01:49:18;;;;;;;7.83;5.80;;;9.70;99.90;;;;;;5050339;28;20205;-52
2022/04/07 01:51:46;;;;;;;7.40;5.80;;;9.70;99.90;;;;;;5050091;28;20233;-52
2022/04/07 01:54:16;;;;;;;6.90;5.23;;;9.70;99.90;;;;;;5050415;28;20223;-51
2022/04/07 01:56:44;;;;;;;6.27;5.17;;;9.70;99.90;;;;;;5050622;28;20205;-52
2022/04/07 01:59:14;;;;;;;9.23;5.60;;;9.70;99.90;;;;;;5050581;28;20259;-52
2022/04/07 02:01:42;;;;;;;5.83;5.07;;;9.80;99.90;;;;;;5050517;28;20232;-52
2022/04/07 02:04:11;;;;;;;7.60;5.63;;;9.70;99.90;;;;;;5050286;28;20206;-52
2022/04/07 02:06:39;;;;;;;9.87;6.30;;;9.70;99.90;;;;;;5050633;28;20263;-52
2022/04/07 02:09:07;;;;;;;8.07;5.33;;;9.70;99.90;;;;;;5050233;28;20226;-52
2022/04/07 02:11:35;;;;;;;5.77;3.30;;;9.60;99.90;;;;;;5050945;28;20225;-52
2022/04/07 02:14:03;;;;;;;4.10;2.80;;;9.20;99.90;;;;;;5054096;28;20209;-51
2022/04/07 02:16:33;;;;;;;3.80;2.10;;;8.80;99.90;;;;;;5053813;28;20205;-52
2022/04/07 02:19:01;;;;;;;2.80;1.70;;;8.60;99.90;;;;;;5054209;28;20203;-52
2022/04/07 02:21:29;;;;;;;4.03;1.90;;;8.50;99.90;;;;;;5053482;28;20284;-52
2022/04/07 02:23:58;;;;;;;4.77;1.97;;;8.40;99.90;;;;;;5053959;28;20206;-52
2022/04/07 02:26:27;;;;;;;2.40;1.77;;;8.40;99.90;;;;;;5052638;28;20214;-51
2022/04/07 02:28:55;;;;;;;3.27;1.77;;;8.40;99.90;;;;;;5054461;28;20690;-52
2022/04/07 02:31:23;;;;;;;3.23;1.97;;;8.40;99.90;;;;;;5053860;28;20665;-52
2022/04/07 02:33:52;;;;;;;2.70;1.90;;;8.40;99.90;;;;;;5052384;28;20205;-52
2022/04/07 02:36:20;;;;;;;3.43;2.00;;;8.50;99.90;;;;;;5054070;28;20256;-52
2022/04/07 02:38:48;;;;;;;2.67;1.70;;;8.60;99.90;;;;;;5053898;28;20584;-52
2022/04/07 02:41:18;;;;;;;2.63;1.50;;;8.60;99.90;;;;;;5053560;28;20263;-52
2022/04/07 02:43:46;;;;;;;3.33;1.70;;;8.60;99.90;;;;;;5052338;28;20205;-52
2022/04/07 02:46:14;;;;;;;2.47;1.70;;;8.60;99.90;;;;;;5052490;28;20210;-51
2022/04/07 02:48:42;;;;;;;2.97;1.80;;;8.60;99.90;;;;;;5053781;28;20221;-52
2022/04/07 02:51:11;;;;;;;2.43;1.80;;;8.60;99.90;;;;;;5053091;28;20269;-51
2022/04/07 02:53:40;;;;;;;1.80;1.70;;;8.60;99.90;;;;;;5053254;28;20206;-52
2022/04/07 02:56:08;;;;;;;3.57;1.80;;;8.70;99.90;;;;;;5053452;28;20205;-51
2022/04/07 02:58:36;;;;;;;1.90;1.80;;;8.70;99.90;;;;;;5053659;28;20666;-52
2022/04/07 03:01:04;;;;;;;3.70;1.90;;;8.70;99.90;;;;;;5053078;28;20229;-51
2022/04/07 03:03:32;;;;;;;2.53;2.17;;;8.70;99.90;;;;;;5053176;28;20211;-51
2022/04/07 03:06:00;;;;;;;2.43;2.23;;;8.70;99.90;;;;;;5053349;28;20697;-52
2022/04/07 03:08:30;;;;;;;2.50;2.30;;;8.70;99.90;;;;;;5053484;28;20216;-51
2022/04/07 03:10:58;;;;;;;4.63;3.17;;;8.60;99.90;;;;;;5053669;28;20259;-52
2022/04/07 03:13:26;;;;;;;6.83;3.30;;;8.50;99.90;;;;;;5052555;28;20267;-52
2022/04/07 03:15:55;;;;;;;5.27;3.50;;;8.50;99.90;;;;;;5053474;28;20261;-52
2022/04/07 03:18:23;;;;;;;5.57;3.23;;;8.50;99.90;;;;;;5052987;28;20232;-52
2022/04/07 03:20:51;;;;;;;3.97;3.10;;;8.50;99.90;;;;;;5053265;28;20275;-52
2022/04/07 03:23:20;;;;;;;3.40;3.10;;;8.50;99.90;;;;;;5052550;28;20209;-52
2022/04/07 03:25:50;;;;;;;4.07;2.73;;;8.60;99.90;;;;;;5053125;28;20271;-51
2022/04/07 03:28:18;;;;;;;4.17;3.00;;;8.60;99.90;;;;;;5053201;28;20225;-51
2022/04/07 03:30:46;;;;;;;3.40;3.07;;;8.60;99.90;;;;;;5052753;28;20248;-51
2022/04/07 03:33:15;;;;;;;2.60;2.40;;;8.60;99.90;;;;;;5051609;28;20231;-52
2022/04/07 03:35:43;;;;;;;3.63;2.33;;;8.60;99.90;;;;;;5052416;28;20209;-52
2022/04/07 03:38:12;;;;;;;5.30;2.80;;;8.60;99.90;;;;;;5053153;28;20201;-52
2022/04/07 03:40:40;;;;;;;3.83;2.50;;;8.60;99.90;;;;;;5052250;28;20226;-52
2022/04/07 03:43:10;;;;;;;5.20;2.30;;;8.70;99.90;;;;;;5052243;28;20209;-52
2022/04/07 03:45:38;;;;;;;2.80;2.07;;;8.60;99.90;;;;;;5052524;28;20206;-52
2022/04/07 03:48:07;;;;;;;5.60;2.17;;;8.60;99.90;;;;;;5053063;28;20704;-52
2022/04/07 03:50:35;;;;;;;3.17;2.30;;;8.50;99.90;;;;;;5052501;28;20226;-51
2022/04/07 03:53:04;;;;;;;3.53;2.00;;;8.50;99.90;;;;;;5052249;28;20271;-51
2022/04/07 03:55:32;;;;;;;2.67;2.03;;;8.60;99.90;;;;;;5052094;28;20217;-52
2022/04/07 03:58:00;;;;;;;2.37;2.00;;;8.60;99.90;;;;;;5052259;28;20270;-52
2022/04/07 04:00:30;;;;;;;2.30;2.10;;;8.60;99.90;;;;;;5052164;28;20275;-51
2022/04/07 04:02:58;;;;;;;3.83;2.17;;;8.60;99.90;;;;;;5051606;28;20205;-52
2022/04/07 04:05:27;;;;;;;2.33;2.13;;;8.60;99.90;;;;;;5052413;28;20224;-52
2022/04/07 04:07:56;;;;;;;3.33;2.80;;;8.60;99.90;;;;;;5052603;28;20202;-52
2022/04/07 04:10:24;;;;;;;2.70;2.50;;;8.50;99.90;;;;;;5051762;28;20225;-51
2022/04/07 04:12:52;;;;;;;3.47;3.17;;;8.50;99.90;;;;;;5051747;28;20213;-52
2022/04/07 04:15:21;;;;;;;4.57;3.50;;;8.50;99.90;;;;;;5051751;28;20206;-51
2022/04/07 04:17:50;;;;;;;4.07;3.30;;;8.50;99.90;;;;;;5052058;28;20243;-52
2022/04/07 04:20:18;;;;;;;4.23;3.70;;;8.60;99.90;;;;;;5051852;28;20281;-52
2022/04/07 04:22:46;;;;;;;4.67;3.60;;;8.60;99.90;;;;;;5051852;28;20210;-51
2022/04/07 04:25:14;;;;;;;4.53;3.73;;;8.60;99.90;;;;;;5051880;28;20259;-51
2022/04/07 04:27:43;;;;;;;6.10;3.77;;;8.50;99.90;;;;;;5051646;28;20209;-51
2022/04/07 04:30:13;;;;;;;5.10;3.90;;;8.60;99.90;;;;;;5052143;28;20584;-51
2022/04/07 04:32:43;;;;;;;3.87;3.50;;;8.60;99.90;;;;;;5050349;28;20685;-51
2022/04/07 04:35:13;;;;;;;7.20;4.27;;;8.60;99.90;;;;;;5052050;28;20210;-52
2022/04/07 04:37:41;;;;;;;6.40;4.57;;;8.60;99.90;;;;;;5052049;28;20255;-51
2022/04/07 04:40:10;;;;;;;4.40;4.00;;;8.60;99.90;;;;;;5051875;28;20227;-51
2022/04/07 04:42:40;;;;;;;6.13;3.80;;;8.60;99.90;;;;;;5033770;28;20206;-52
2022/04/07 04:45:09;;;;;;;4.20;3.80;;;8.60;99.90;;;;;;5031561;28;20689;-51
2022/04/07 04:47:37;;;;;;;3.90;3.50;;;8.60;99.90;;;;;;5031917;28;20213;-51
2022/04/07 04:50:06;;;;;;;4.90;3.60;;;8.60;99.90;;;;;;5031482;28;20230;-51
2022/04/07 04:52:35;;;;;;;4.43;4.00;;;8.60;99.90;;;;;;5031298;28;20216;-52
2022/04/07 04:55:04;;;;;;;3.90;3.50;;;8.60;99.90;;;;;;5031702;28;20205;-51
2022/04/07 04:57:32;;;;;;;3.50;3.20;;;8.60;99.90;;;;;;5031928;28;20588;-51
2022/04/07 05:00:00;;;;;;;3.40;3.10;;;8.70;99.90;;;;;;5041869;28;20255;-51
2022/04/07 05:02:28;;;;;;;6.03;3.00;;;8.70;99.90;;;;;;5051162;28;20209;-52
2022/04/07 05:04:56;;;;;;;3.33;3.03;;;8.70;99.90;;;;;;5051330;28;20209;-51
2022/04/07 05:07:24;;;;;;;3.40;3.10;;;8.80;99.90;;;;;;5051471;28;20209;-51
2022/04/07 05:09:59;;;;;;;3.57;3.20;;;8.80;99.90;;;;;;5051457;28;20229;-51
2022/04/07 05:12:27;;;;;;;4.63;3.47;;;8.90;99.90;;;;;;5050660;28;20206;-50
2022/04/07 05:14:55;;;;;;;3.20;2.87;;;8.90;99.90;;;;;;5051512;28;20205;-52
2022/04/07 05:17:23;;;;;;;3.47;3.07;;;8.90;99.90;;;;;;5051281;28;20206;-51
2022/04/07 05:19:52;;;;;;;3.10;2.90;;;8.90;99.90;;;;;;5051669;28;20283;-50
2022/04/07 05:22:20;;;;;;;3.47;3.17;;;8.90;99.90;;;;;;5033327;28;20247;-51
2022/04/07 05:24:48;;;;;;;3.57;3.00;;;8.90;99.90;;;;;;5034901;28;20214;-51
2022/04/07 05:27:18;;;;;;;3.73;3.40;;;9.00;99.90;;;;;;5050036;28;20264;-52
2022/04/07 05:29:46;;;;;;;6.60;3.70;;;9.00;99.90;;;;;;5050448;28;20694;-51
2022/04/07 05:32:14;;;;;;;4.73;3.60;;;8.90;99.90;;;;;;5045658;28;20221;-50
2022/04/07 05:34:42;;;;;;;5.13;3.30;;;9.00;99.90;;;;;;5031235;28;20272;-51
2022/04/07 05:37:10;;;;;;;3.60;3.30;;;8.90;99.90;;;;;;5029892;28;20206;-51
2022/04/07 05:39:38;;;;;;;3.43;3.13;;;8.90;99.90;;;;;;5050963;28;20209;-51
2022/04/07 05:42:07;;;;;;;4.33;3.80;;;8.90;99.90;;;;;;5050445;28;20237;-50
2022/04/07 05:44:36;;;;;;;4.47;3.60;;;8.80;99.90;;;;;;5050935;28;20278;-51
2022/04/07 05:47:05;;;;;;;4.20;3.80;;;8.80;99.90;;;;;;5039620;28;20587;-51
2022/04/07 05:49:33;;;;;;;4.33;3.27;;;8.90;99.90;;;;;;5034870;28;20222;-51
2022/04/07 05:52:03;;;;;;;4.33;3.73;;;8.90;99.90;;;;;;5034401;28;20234;-51
2022/04/07 05:54:37;;;;;;;4.17;3.30;;;8.90;99.90;;;;;;5034735;28;20215;-51
2022/04/07 05:57:06;;;;;;;3.67;3.37;;;8.90;99.90;;;;;;5034977;28;20214;-51
2022/04/07 05:59:35;;;;;;;3.97;3.40;;;9.00;99.90;;;;;;5041326;28;20207;-51
2022/04/07 06:02:04;;;;;;;5.00;3.73;;;9.00;99.90;;;;;;5054365;28;20237;-50
2022/04/07 06:04:32;;;;;;;4.60;3.70;;;8.90;99.90;;;;;;5054574;28;20213;-51
2022/04/07 06:07:00;;;;;;;5.17;3.80;;;9.00;99.90;;;;;;5053936;28;20262;-51
2022/04/07 06:09:28;;;;;;;3.37;3.00;;;9.00;99.90;;;;;;5054474;28;20217;-51
2022/04/07 06:11:56;;;;;;;4.10;3.03;;;9.00;99.90;;;;;;5053154;28;20230;-51
2022/04/07 06:14:25;;;;;;;4.67;3.47;;;9.00;99.90;;;;;;5034933;28;20234;-51
2022/04/07 06:16:54;;;;;;;3.30;3.00;;;9.00;99.90;;;;;;5034551;28;20206;-51
2022/04/07 06:19:22;;;;;;;4.30;3.37;;;9.10;99.90;;;;;;5037536;28;20195;-51
2022/04/07 06:21:50;;;;;;;3.73;3.07;;;9.10;99.90;;;;;;5037677;28;20636;-51
2022/04/07 06:24:19;;;;;;;5.30;3.30;;;9.10;99.90;;;;;;5033832;28;20210;-51
2022/04/07 06:26:49;;;;;;;4.73;3.40;;;9.10;99.90;;;;;;5034280;28;20221;-51
2022/04/07 06:29:17;;;;;;;4.23;3.23;;;9.10;99.90;;;;;;5034368;28;20206;-51
2022/04/07 06:31:45;;;;;;;4.10;3.10;;;9.20;99.90;;;;;;5034037;28;20243;-51
2022/04/07 06:34:22;;;;;;;6.03;3.00;;;9.20;99.90;;;;;;5034416;28;20205;-51
2022/04/07 06:36:50;;;;;;;2.90;2.57;;;9.30;99.90;;;;;;5034187;28;20213;-51
2022/04/07 06:39:18;;;;;;;4.10;2.83;;;9.20;99.90;;;;;;5033851;28;20210;-51
2022/04/07 06:41:47;;;;;;;3.67;2.90;;;9.20;99.90;;;;;;5033675;28;20227;-51
2022/04/07 06:44:15;;;;;;;3.10;2.50;;;9.30;99.90;;;;;;5034339;28;20272;-51
2022/04/07 06:46:43;;;;;;;2.57;2.37;;;9.40;99.90;;;;;;5034178;28;20280;-51
2022/04/07 06:49:12;;;;;;;3.77;2.47;;;9.40;99.90;;;;;;5034098;28;20264;-51
2022/04/07 06:51:41;;;;;;;3.67;2.40;;;9.40;99.90;;;;;;5033576;28;20231;-51
2022/04/07 06:54:09;;;;;;;4.10;2.47;;;9.40;99.90;;;;;;5034145;28;20211;-51
2022/04/07 06:56:37;;;;;;;4.83;2.60;;;9.40;99.90;;;;;;5035717;28;20284;-52
2022/04/07 06:59:06;;;;;;;3.20;2.40;;;9.40;99.90;;;;;;5053215;28;20352;-51
2022/04/07 07:01:34;;;;;;;3.73;2.67;;;9.40;99.90;;;;;;5053543;28;20221;-51
2022/04/07 07:04:05;;;;;;;3.83;2.60;;;9.50;99.90;;;;;;5052904;28;20215;-51
2022/04/07 07:06:33;;;;;;;3.67;2.20;;;9.50;99.90;;;;;;5053375;28;20210;-51
2022/04/07 07:09:02;;;;;;;3.07;2.30;;;9.40;99.90;;;;;;5053105;28;20683;-51
2022/04/07 07:11:30;;;;;;;3.37;2.13;;;9.40;99.90;;;;;;5053244;28;20234;-51
2022/04/07 07:13:58;;;;;;;4.53;2.43;;;9.40;99.90;;;;;;5053074;28;20205;-51
2022/04/07 07:16:27;;;;;;;2.97;2.00;;;9.40;99.90;;;;;;5053474;28;20626;-51
2022/04/07 07:18:56;;;;;;;4.17;2.47;;;9.40;99.90;;;;;;5048572;28;20255;-51
2022/04/07 07:21:24;;;;;;;3.47;2.40;;;9.40;99.90;;;;;;5036932;28;20233;-51
2022/04/07 07:23:52;;;;;;;3.00;2.33;;;9.40;99.90;;;;;;5032803;28;20203;-52
2022/04/07 07:26:22;;;;;;;4.03;2.70;;;9.40;99.90;;;;;;5033204;28;20247;-51
2022/04/07 07:28:50;;;;;;;3.33;2.80;;;9.40;99.90;;;;;;5032951;28;20267;-51
2022/04/07 07:31:18;;;;;;;3.80;2.43;;;9.50;99.90;;;;;;5032487;28;20241;-51
2022/04/07 07:33:46;;;;;;;5.40;2.60;;;9.50;99.90;;;;;;5032858;28;20214;-51
2022/04/07 07:36:14;;;;;;;3.80;2.23;;;9.50;99.90;;;;;;5043166;28;20251;-51
2022/04/07 07:38:42;;;;;;;4.93;2.97;;;9.50;99.90;;;;;;5052794;28;20255;-51
2022/04/07 07:41:10;;;;;;;4.97;3.00;;;9.50;99.90;;;;;;5052151;28;20222;-51
2022/04/07 07:43:40;;;;;;;4.07;3.00;;;9.60;99.90;;;;;;5051755;28;20205;-51
2022/04/07 07:46:08;;;;;;;3.93;3.10;;;9.50;99.90;;;;;;5053040;28;20209;-51
2022/04/07 07:48:36;;;;;;;4.87;3.37;;;9.50;99.90;;;;;;5052630;28;20208;-52
2022/04/07 07:51:04;;;;;;;3.50;2.83;;;9.60;99.90;;;;;;5052707;28;20745;-51
2022/04/07 07:53:33;;;;;;;4.77;3.43;;;9.50;99.90;;;;;;5051896;28;20210;-51
2022/04/07 07:56:01;;;;;;;4.33;3.30;;;9.60;99.90;;;;;;5052579;28;20204;-51
2022/04/07 07:58:29;;;;;;;4.33;3.23;;;9.60;99.90;;;;;;5035580;28;20698;-51
2022/04/07 08:00:58;;;;;;;4.40;3.30;;;9.60;99.90;;;;;;5050761;28;20221;-51
2022/04/07 08:03:27;;;;;;;4.50;3.43;;;9.60;99.90;;;;;;5051634;28;20744;-51
2022/04/07 08:05:55;;;;;;;4.30;3.07;;;9.60;99.90;;;;;;5052086;28;20327;-51
2022/04/07 08:08:23;;;;;;;3.70;3.20;;;9.60;99.90;;;;;;5052440;28;20659;-51
2022/04/07 08:10:51;;;;;;;3.30;2.70;;;9.70;99.90;;;;;;5051198;28;20282;-51
2022/04/07 08:13:20;;;;;;;3.30;3.00;;;9.60;99.90;;;;;;5051937;28;20201;-51
2022/04/07 08:15:49;;;;;;;3.43;2.63;;;9.50;99.90;;;;;;5052192;28;20252;-51
2022/04/07 08:18:18;;;;;;;4.17;3.10;;;9.50;99.90;;;;;;5051987;28;20299;-51
2022/04/07 08:20:46;;;;;;;3.67;2.93;;;9.50;99.90;;;;;;5050600;28;20279;-51
2022/04/07 08:23:14;;;;;;;4.10;2.60;;;9.50;99.90;;;;;;5051468;28;20206;-51
2022/04/07 08:25:43;;;;;;;5.17;2.90;;;9.50;99.90;;;;;;5032140;28;20209;-51
2022/04/07 08:28:11;;;;;;;4.70;2.67;;;9.50;99.90;;;;;;5032513;28;20210;-51
2022/04/07 08:30:39;;;;;;;4.83;2.47;;;9.50;99.90;;;;;;5031836;28;20226;-51
2022/04/07 08:33:08;;;;;;;2.70;2.50;;;9.60;99.90;;;;;;5031314;28;20256;-51
2022/04/07 08:35:37;;;;;;;2.87;2.33;;;9.50;99.90;;;;;;5033628;28;20293;-51
2022/04/07 08:38:06;;;;;;;2.93;2.60;;;9.60;99.90;;;;;;5032085;28;20628;-52
2022/04/07 08:40:36;;;;;;;3.40;2.50;;;9.50;99.90;;;;;;5031544;28;20234;-51
2022/04/07 08:43:05;;;;;;;3.70;2.40;;;9.50;99.90;;;;;;5031315;28;20206;-50
2022/04/07 08:45:34;;;;;;;2.17;1.90;;;9.50;99.90;;;;;;5031117;28;20217;-52
2022/04/07 08:48:04;;;;;;;3.30;2.23;;;9.60;99.90;;;;;;5031559;28;20640;-52
2022/04/07 08:50:34;;;;;;;2.53;2.13;;;9.60;99.90;;;;;;5031515;28;20261;-51
2022/04/07 08:53:04;;;;;;;2.67;2.10;;;9.50;99.90;;;;;;5030978;28;20260;-51
2022/04/07 08:55:32;;;;;;;2.87;1.90;;;9.50;99.90;;;;;;5031455;28;20735;-52
2022/04/07 08:58:00;;;;;;;2.43;2.20;;;9.50;99.90;;;;;;5031662;28;20669;-51
2022/04/07 09:00:28;;;;;;;3.10;2.20;;;9.50;99.90;;;;;;5045272;28;20221;-52
2022/04/07 09:02:57;;;;;;;1.90;1.80;;;9.50;99.90;;;;;;5050358;28;20210;-51
2022/04/07 09:05:31;;;;;;;3.93;1.80;;;9.60;99.90;;;;;;5050660;28;20235;-51
2022/04/07 09:08:00;;;;;;;3.23;2.30;;;9.60;99.90;;;;;;5050875;28;20206;-51
2022/04/07 09:10:29;;;;;;;2.40;2.20;;;9.60;99.90;;;;;;5030154;28;20222;-51
2022/04/07 09:13:04;;;;;;;2.87;2.57;;;9.60;99.90;;;;;;5030578;28;20229;-51
2022/04/07 09:15:33;;;;;;;3.47;2.40;;;9.50;99.90;;;;;;5031104;28;20210;-51
2022/04/07 09:18:01;;;;;;;2.50;2.30;;;9.50;99.90;;;;;;5031208;28;20220;-52
2022/04/07 09:20:30;;;;;;;2.60;2.10;;;9.50;99.90;;;;;;5034933;28;20249;-52
2022/04/07 09:22:59;;;;;;;2.00;1.90;;;9.50;99.90;;;;;;5034815;28;20210;-52
2022/04/07 09:25:30;;;;;;;2.50;2.30;;;9.50;99.90;;;;;;5030946;28;20213;-52
2022/04/07 09:28:00;;;;;;;2.00;1.90;;;9.50;99.90;;;;;;5030873;28;20253;-52
2022/04/07 09:30:38;;;;;;;1.90;1.80;;;9.50;99.90;;;;;;5030942;28;20234;-52
2022/04/07 09:33:06;;;;;;;2.10;1.90;;;9.50;99.90;;;;;;5030392;28;20260;-52
2022/04/07 09:35:34;;;;;;;2.20;1.97;;;9.50;99.90;;;;;;5033520;28;20289;-52
2022/04/07 09:38:03;;;;;;;3.10;2.10;;;9.50;99.90;;;;;;5029830;28;20209;-52
2022/04/07 09:40:32;;;;;;;3.60;2.00;;;9.50;99.90;;;;;;5030271;28;20808;-52
2022/04/07 09:43:01;;;;;;;4.27;1.90;;;9.50;99.90;;;;;;5030424;28;20210;-52
2022/04/07 09:45:29;;;;;;;1.80;1.70;;;9.50;99.90;;;;;;5030151;28;20202;-52
2022/04/07 09:48:18;;;;;;;2.40;2.03;;;9.50;99.90;;;;;;5030836;28;20205;-52
2022/04/07 09:51:02;;;;;;;2.10;1.90;;;9.50;99.90;;;;;;5029922;28;20738;-52
2022/04/07 09:53:37;;;;;;;2.23;2.03;;;9.60;99.90;;;;;;5030048;28;20698;-52
2022/04/07 09:56:07;;;;;;;2.67;2.07;;;9.60;99.90;;;;;;5030854;28;20263;-53
2022/04/07 09:58:36;;;;;;;1.87;1.77;;;9.70;99.90;;;;;;5030919;28;20190;-52
2022/04/07 10:01:05;;;;;;;1.43;1.30;;;9.70;99.90;;;;;;5049173;28;20275;-52
2022/04/07 10:03:34;;;;;;;1.50;1.40;;;9.70;99.90;;;;;;5049934;28;20205;-52
2022/04/07 10:06:02;;;;;;;2.10;1.40;;;9.90;99.90;;;;;;5050513;28;20618;-52
2022/04/07 10:08:32;;;;;;;1.80;1.70;;;9.90;99.90;;;;;;5049070;28;20617;-52
2022/04/07 10:11:01;;;;;;;1.50;1.30;;;9.90;99.90;;;;;;5033882;28;20249;-52
2022/04/07 10:13:31;;;;;;;1.30;1.20;;;10.00;99.90;;;;;;5049911;28;20217;-52
2022/04/07 10:16:00;;;;;;;1.17;1.07;;;10.00;99.90;;;;;;5050357;28;20244;-52
2022/04/07 10:18:32;;;;;;;1.07;0.90;;;9.90;99.90;;;;;;5030568;28;20217;-52
2022/04/07 10:21:03;;;;;;;1.90;1.13;;;10.00;99.90;;;;;;5030253;28;20582;-52
2022/04/07 10:23:46;;;;;;;1.23;1.10;;;10.00;99.90;;;;;;5030057;28;20733;-52
2022/04/07 10:26:15;;;;;;;1.17;1.13;;;10.10;99.90;;;;;;5030051;28;20292;-52
2022/04/07 10:28:54;;;;;;;2.10;1.40;;;10.20;99.90;;;;;;5030519;28;20202;-52
2022/04/07 10:31:22;;;;;;;1.10;1.00;;;10.20;99.90;;;;;;5029970;28;20657;-52
2022/04/07 10:33:51;;;;;;;1.80;1.13;;;10.30;99.90;;;;;;5032044;28;20221;-52
2022/04/07 10:36:24;;;;;;;1.30;1.20;;;10.40;99.90;;;;;;5049575;28;20193;-52
2022/04/07 10:38:54;;;;;;;1.20;1.10;;;10.40;99.90;;;;;;5053342;28;20286;-52
2022/04/07 10:41:50;;;;;;;1.40;1.30;;;10.50;99.90;;;;;;5053691;28;20229;-52
2022/04/07 10:44:22;;;;;;;1.07;0.90;;;10.50;99.90;;;;;;5052677;28;20206;-52
2022/04/07 10:46:50;;;;;;;1.43;0.93;;;10.70;99.90;;;;;;5053415;28;20209;-52
2022/04/07 10:49:24;;;;;;;1.00;0.90;;;10.80;99.90;;;;;;5052641;28;20202;-52
2022/04/07 10:51:55;;;;;;;1.90;1.10;;;10.80;99.90;;;;;;5052825;28;20294;-52
2022/04/07 10:54:24;;;;;;;1.03;1.00;;;10.70;99.90;;;;;;5052768;28;20248;-52
2022/04/07 10:56:56;;;;;;;1.00;0.90;;;10.70;99.90;;;;;;5053268;28;20300;-52
2022/04/07 10:59:27;;;;;;;1.00;0.90;;;10.70;99.90;;;;;;5052025;28;20227;-52
2022/04/07 11:02:01;;;;;;;0.80;0.73;;;10.70;99.90;;;;;;5052830;28;20222;-52
2022/04/07 11:04:31;;;;;;;0.80;0.80;;;10.90;99.90;;;;;;5052821;28;20224;-52
2022/04/07 11:07:16;;;;;;;0.80;0.80;;;10.90;99.90;;;;;;5053114;28;20559;-52
2022/04/07 11:09:46;;;;;;;0.87;0.80;;;10.80;99.90;;;;;;5043456;28;20209;-52
2022/04/07 11:12:19;;;;;;;2.93;0.90;;;10.80;99.90;;;;;;5032034;28;20319;-52
2022/04/07 11:14:50;;;;;;;0.63;0.63;;;11.00;99.90;;;;;;5033192;28;20199;-52
2022/04/07 11:17:28;;;;;;;0.90;0.90;;;11.10;99.90;;;;;;5033080;28;20217;-52
2022/04/07 11:20:05;;;;;;;1.00;0.90;;;11.00;99.90;;;;;;5031190;28;20679;-52
2022/04/07 11:22:47;;;;;;;1.53;0.80;;;11.10;99.90;;;;;;5032673;28;20202;-52
2022/04/07 11:25:16;;;;;;;0.97;0.73;;;11.10;99.90;;;;;;5033037;28;20209;-52
2022/04/07 11:27:45;;;;;;;2.57;1.13;;;11.00;99.90;;;;;;5032407;28;20336;-52
2022/04/07 11:30:15;;;;;;;1.87;0.70;;;11.00;99.90;;;;;;5032387;28;20237;-51
2022/04/07 11:33:16;;;;;;;1.10;1.00;;;11.00;99.90;;;;;;5045416;28;20231;-52
2022/04/07 11:35:44;;;;;;;0.60;0.60;;;11.00;99.90;;;;;;5061263;28;20669;-52
2022/04/07 11:38:16;;;;;;;1.20;1.07;;;10.90;99.90;;;;;;5052223;28;20256;-52
2022/04/07 11:40:59;;;;;;;0.70;0.70;;;10.90;99.90;;;;;;5052728;28;20226;-52
2022/04/07 11:43:27;;;;;;;1.90;1.17;;;10.90;99.90;;;;;;5052431;28;20202;-52
2022/04/07 11:45:58;;;;;;;0.63;0.63;;;10.80;99.90;;;;;;5052331;28;20283;-52
2022/04/07 11:48:46;;;;;;;2.20;1.10;;;10.80;99.90;;;;;;5052857;28;20246;-52
2022/04/07 11:51:17;;;;;;;2.30;1.13;;;10.90;99.90;;;;;;5052224;28;20275;-51
2022/04/07 11:53:51;;;;;;;2.03;1.00;;;10.90;99.90;;;;;;5052322;28;20226;-52
2022/04/07 11:56:20;;;;;;;1.93;1.30;;;10.90;99.90;;;;;;5052308;28;20210;-52
2022/04/07 11:58:53;;;;;;;2.27;1.93;;;10.90;99.90;;;;;;5052469;28;20267;-52
2022/04/07 12:01:23;;;;;;;2.23;1.20;;;10.90;99.90;;;;;;5052577;28;20226;-52
2022/04/07 12:03:52;;;;;;;2.13;1.10;;;10.90;99.90;;;;;;5048006;28;20194;-51
2022/04/07 12:06:23;;;;;;;2.13;1.20;;;10.90;99.90;;;;;;5051734;28;20859;-52
2022/04/07 12:08:51;;;;;;;1.70;1.30;;;10.90;99.90;;;;;;5050870;28;20248;-52
2022/04/07 12:11:20;;;;;;;6.33;1.67;;;10.90;99.90;;;;;;5049661;28;20228;-52
2022/04/07 12:13:51;;;;;;;1.13;0.80;;;10.70;99.90;;;;;;5040949;28;20209;-52
2022/04/07 12:16:19;;;;;;;2.80;1.77;;;10.40;99.90;;;;;;5051604;28;20210;-52
2022/04/07 12:18:55;;;;;;;3.63;1.90;;;10.20;99.90;;;;;;5051644;28;20219;-52
2022/04/07 12:21:25;;;;;;;0.70;0.70;;;10.10;99.90;;;;;;5038592;28;20233;-52
2022/04/07 12:24:12;;;;;;;1.00;0.90;;;10.00;99.90;;;;;;5031142;28;20778;-53
2022/04/07 12:26:42;;;;;;;1.07;1.07;;;10.00;99.90;;;;;;5031611;28;20302;-52
2022/04/07 12:29:14;;;;;;;1.07;0.80;;;10.10;99.90;;;;;;5031220;28;20237;-52
2022/04/07 12:31:42;;;;;;;2.37;1.63;;;10.40;99.90;;;;;;5030825;28;20234;-52
2022/04/07 12:34:13;;;;;;;7.43;6.70;;;10.90;99.90;;;;;;5031460;28;20262;-52
2022/04/07 12:36:42;;;;;;;2.43;2.23;;;11.10;99.90;;;;;;5034172;28;20433;-52
2022/04/07 12:39:12;;;;;;;1.50;1.10;;;11.30;99.90;;;;;;5031678;28;20210;-52
2022/04/07 12:41:41;;;;;;;1.13;1.00;;;11.50;99.90;;;;;;5031051;28;20798;-52
2022/04/07 12:44:11;;;;;;;1.73;1.43;;;11.40;99.90;;;;;;5030607;28;20205;-52
2022/04/07 12:46:48;;;;;;;3.17;1.73;;;11.40;99.90;;;;;;5031295;28;20214;-51
2022/04/07 12:49:25;;;;;;;2.70;1.83;;;11.30;99.90;;;;;;5031314;28;20792;-52
2022/04/07 12:52:07;;;;;;;0.70;0.70;;;11.40;99.90;;;;;;5029859;28;20257;-52
2022/04/07 12:54:36;;;;;;;1.33;0.97;;;11.20;99.90;;;;;;5030890;28;20226;-52
2022/04/07 12:57:12;;;;;;;0.60;0.53;;;11.30;99.90;;;;;;5030538;28;20268;-51
2022/04/07 12:59:42;;;;;;;0.70;0.70;;;11.30;99.90;;;;;;5042035;28;20221;-52
2022/04/07 13:02:10;;;;;;;0.50;0.50;;;11.30;99.90;;;;;;5050019;28;20316;-52
2022/04/07 13:04:50;;;;;;;0.67;0.60;;;11.40;99.90;;;;;;5050640;28;20198;-52
2022/04/07 13:07:19;;;;;;;0.80;0.80;;;11.30;99.90;;;;;;5030938;28;20209;-51
2022/04/07 13:09:48;;;;;;;2.27;0.70;;;11.30;99.90;;;;;;5045781;28;20247;-51